Terminal Aerodrome Forecast
Issued by NWS Grand Rapids, MI

Home | Current Version | Previous Version | Text Only | Print | Product List | Glossary On
Versions: 1 2 3 4 5 6 7 8 9 10 11 12 13 14 15
000
FTUS43 KGRR 271741
TAFGRR
TAF
KGRR 271741Z 2718/2818 15010KT P6SM VCSH SCT005 OVC040
     FM272000 19005KT P6SM SCT009 BKN035
     FM280800 23004KT 5SM BR OVC035
     FM281000 23004KT 2SM BR OVC070
     FM281300 24004KT 4SM HZ BR OVC050
     FM281500 26005KT P6SM OVC050=

USA.gov is the U.S. government's official web portal to all federal, state and local government web resources and services.